createdAt,value
2022-10-23T00:01:26.703Z,10.48
2022-10-23T00:03:55.672Z,8.85
2022-10-23T00:06:22.822Z,8.80
2022-10-23T00:08:50.065Z,9.13
2022-10-23T00:11:20.884Z,8.35
2022-10-23T00:13:48.969Z,8.75
2022-10-23T00:16:15.790Z,13.27
2022-10-23T00:18:42.718Z,10.23
2022-10-23T00:21:11.877Z,11.68
2022-10-23T00:23:38.660Z,10.52
2022-10-23T00:26:05.505Z,9.63
2022-10-23T00:28:32.156Z,15.45
2022-10-23T00:31:03.191Z,14.52
2022-10-23T00:33:30.082Z,13.95
2022-10-23T00:35:56.757Z,14.18
2022-10-23T00:38:24.086Z,11.27
2022-10-23T00:40:51.584Z,13.98
2022-10-23T00:43:21.616Z,11.02
2022-10-23T00:45:48.377Z,8.93
2022-10-23T00:48:16.176Z,12.27
2022-10-23T00:50:42.967Z,10.32
2022-10-23T00:53:12.600Z,9.93
2022-10-23T00:55:41.375Z,9.98
2022-10-23T00:58:08.034Z,8.05
2022-10-23T01:00:45.726Z,10.10
2022-10-23T01:03:14.566Z,9.82
2022-10-23T01:05:54.189Z,8.90
2022-10-23T01:08:50.559Z,7.97
2022-10-23T01:11:26.843Z,7.68
2022-10-23T01:14:06.480Z,7.55
2022-10-23T01:16:46.301Z,9.25
2022-10-23T01:19:37.460Z,8.02
2022-10-23T01:22:13.596Z,7.00
2022-10-23T01:24:53.749Z,6.32
2022-10-23T01:27:25.210Z,9.07
2022-10-23T01:30:08.935Z,8.30
2022-10-23T01:32:40.390Z,8.00
2022-10-23T01:35:12.248Z,8.10
2022-10-23T01:37:54.438Z,6.90
2022-10-23T01:40:39.202Z,6.63
2022-10-23T01:43:12.665Z,5.90
2022-10-23T01:45:43.729Z,6.25
2022-10-23T01:48:15.783Z,7.13
2022-10-23T01:50:45.495Z,7.05
2022-10-23T01:53:12.265Z,7.50
2022-10-23T02:00:45.643Z,6.30
2022-10-23T02:03:15.934Z,8.57
2022-10-23T02:05:43.516Z,6.93
2022-10-23T02:08:10.963Z,8.68
2022-10-23T02:10:52.990Z,7.90
2022-10-23T02:13:38.465Z,8.10
2022-10-23T02:18:46.249Z,7.97
2022-10-23T02:21:17.150Z,7.70
2022-10-23T02:23:56.791Z,6.85
2022-10-23T02:26:43.701Z,6.97
2022-10-23T02:29:10.351Z,6.38
2022-10-23T02:31:37.145Z,6.82
2022-10-23T02:34:04.056Z,6.72
2022-10-23T02:36:30.805Z,6.55
2022-10-23T02:38:58.217Z,7.15
2022-10-23T02:41:46.750Z,8.07
2022-10-23T02:44:28.754Z,9.82
2022-10-23T02:47:28.086Z,9.88
2022-10-23T02:50:15.885Z,9.07
2022-10-23T02:53:20.592Z,8.85
2022-10-23T02:56:10.747Z,8.05
2022-10-23T02:58:46.801Z,8.73
2022-10-23T03:01:19.971Z,19.95
2022-10-23T03:03:57.992Z,24.48
2022-10-23T03:06:25.234Z,15.75
2022-10-23T03:08:59.318Z,12.20
2022-10-23T03:11:26.510Z,10.07
2022-10-23T03:13:53.175Z,10.93
2022-10-23T03:16:19.851Z,9.45
2022-10-23T03:18:46.492Z,17.60
2022-10-23T03:21:13.413Z,18.35
2022-10-23T03:23:40.106Z,26.10
2022-10-23T03:26:07.192Z,16.10
2022-10-23T03:28:35.470Z,13.63
2022-10-23T03:31:02.850Z,11.60
2022-10-23T03:33:30.861Z,8.68
2022-10-23T03:35:57.531Z,8.15
2022-10-23T03:38:24.268Z,7.70
2022-10-23T03:40:51.054Z,8.25
2022-10-23T03:43:17.748Z,5.55
2022-10-23T03:45:44.417Z,24.77
2022-10-23T03:48:11.068Z,18.27
2022-10-23T03:50:37.820Z,16.55
2022-10-23T03:53:04.488Z,12.88
2022-10-23T03:55:31.551Z,12.90
2022-10-23T03:57:58.390Z,14.20
2022-10-23T04:00:25.285Z,12.95
2022-10-23T04:02:51.949Z,10.40
2022-10-23T04:05:19.131Z,10.30
2022-10-23T04:07:45.821Z,9.18
2022-10-23T04:10:12.439Z,12.32
2022-10-23T04:12:39.233Z,21.48
2022-10-23T04:15:06.458Z,14.07
2022-10-23T04:17:33.242Z,12.02
2022-10-23T04:19:59.917Z,12.20
2022-10-23T04:22:28.423Z,9.80
2022-10-23T04:24:56.276Z,8.93
2022-10-23T04:27:25.802Z,8.02
2022-10-23T04:29:54.385Z,6.03
2022-10-23T04:32:23.514Z,19.17
2022-10-23T04:34:50.642Z,15.95
2022-10-23T04:37:17.593Z,12.65
2022-10-23T04:39:44.248Z,17.17
2022-10-23T04:42:10.874Z,13.50
2022-10-23T04:44:37.502Z,13.02
2022-10-23T04:47:04.151Z,12.55
2022-10-23T04:49:30.947Z,10.50
2022-10-23T04:51:57.628Z,12.25
2022-10-23T04:54:24.266Z,11.55
2022-10-23T04:56:50.900Z,13.98
2022-10-23T04:59:17.623Z,55.67
2022-10-23T05:01:44.312Z,15.45
2022-10-23T05:04:10.982Z,18.75
2022-10-23T05:06:37.679Z,13.70
2022-10-23T05:09:04.367Z,14.65
2022-10-23T05:11:31.063Z,15.80
2022-10-23T05:13:57.959Z,15.43
2022-10-23T05:17:00.161Z,13.25
2022-10-23T05:19:38.836Z,13.50
2022-10-23T05:22:06.436Z,20.92
2022-10-23T05:24:33.171Z,21.10
2022-10-23T05:26:59.862Z,42.17
2022-10-23T05:29:26.542Z,25.02
2022-10-23T05:31:57.396Z,10.60
2022-10-23T05:34:26.958Z,10.52
2022-10-23T05:36:54.295Z,26.00
2022-10-23T05:39:21.193Z,26.45
2022-10-23T05:41:47.998Z,22.98
2022-10-23T05:44:14.651Z,30.45
2022-10-23T05:46:44.551Z,30.77
2022-10-23T05:49:11.291Z,33.95
2022-10-23T05:51:40.177Z,52.28
2022-10-23T05:54:10.636Z,107.30
2022-10-23T05:56:39.173Z,79.53
2022-10-23T05:59:07.758Z,42.85
2022-10-23T06:01:34.847Z,77.85
2022-10-23T06:04:02.044Z,22.90
2022-10-23T06:06:28.780Z,28.10
2022-10-23T06:08:55.608Z,25.67
2022-10-23T06:11:22.822Z,25.90
2022-10-23T06:13:49.627Z,21.80
2022-10-23T06:16:18.846Z,21.45
2022-10-23T06:18:46.326Z,19.83
2022-10-23T06:21:14.406Z,29.10
2022-10-23T06:23:42.442Z,37.03
2022-10-23T06:26:11.072Z,31.30
2022-10-23T06:28:38.337Z,41.67
2022-10-23T06:31:09.879Z,38.50
2022-10-23T06:33:36.765Z,35.75
2022-10-23T06:36:05.484Z,42.22
2022-10-23T06:38:37.373Z,31.33
2022-10-23T06:41:04.827Z,28.92
2022-10-23T06:43:31.470Z,18.73
2022-10-23T06:46:01.783Z,18.23
2022-10-23T06:48:28.458Z,37.75
2022-10-23T06:50:55.929Z,30.35
2022-10-23T06:53:24.891Z,22.98
2022-10-23T06:55:54.595Z,33.85
2022-10-23T06:58:22.449Z,115.05
2022-10-23T07:00:49.192Z,23.25
2022-10-23T07:03:15.889Z,22.40
2022-10-23T07:05:44.893Z,22.05
2022-10-23T07:08:11.734Z,19.35
2022-10-23T07:10:38.450Z,21.65
2022-10-23T07:13:05.103Z,22.30
2022-10-23T07:15:31.793Z,21.88
2022-10-23T07:17:58.434Z,21.17
2022-10-23T07:20:25.122Z,19.05
2022-10-23T07:22:56.020Z,18.20
2022-10-23T07:25:23.911Z,13.65
2022-10-23T07:27:50.782Z,8.13
2022-10-23T07:30:17.817Z,6.85
2022-10-23T07:32:45.203Z,7.03
2022-10-23T07:37:45.032Z,3.17
2022-10-23T07:40:12.323Z,2.50
2022-10-23T07:42:39.089Z,4.15
2022-10-23T07:45:07.570Z,2.80
2022-10-23T07:47:34.353Z,3.10
2022-10-23T07:50:01.154Z,3.00
2022-10-23T07:52:31.965Z,2.38
2022-10-23T07:55:02.285Z,1.95
2022-10-23T07:57:28.981Z,2.20
2022-10-23T07:59:55.661Z,2.25
2022-10-23T08:02:22.399Z,1.88
2022-10-23T08:04:49.831Z,2.10
2022-10-23T08:07:16.430Z,1.83
2022-10-23T08:09:43.311Z,1.52
2022-10-23T08:12:10.445Z,1.67
2022-10-23T08:14:37.126Z,2.00
2022-10-23T08:17:05.360Z,1.50
2022-10-23T08:19:32.466Z,2.10
2022-10-23T08:21:59.079Z,1.40
2022-10-23T08:24:25.737Z,1.75
2022-10-23T08:26:52.856Z,1.45
2022-10-23T08:29:19.559Z,1.85
2022-10-23T08:31:46.320Z,1.85
2022-10-23T08:34:13.693Z,1.55
2022-10-23T08:36:40.487Z,1.77
2022-10-23T08:39:07.531Z,2.03
2022-10-23T08:41:40.694Z,1.50
2022-10-23T08:44:15.654Z,10.43
2022-10-23T08:46:47.487Z,4.35
2022-10-23T08:49:32.543Z,2.38
2022-10-23T08:54:49.745Z,1.60
2022-10-23T08:57:17.873Z,4.53
2022-10-23T08:59:48.835Z,2.28
2022-10-23T09:02:47.009Z,1.60
2022-10-23T09:05:50.995Z,3.05
2022-10-23T09:08:27.274Z,4.82
2022-10-23T09:11:15.677Z,34.42
2022-10-23T09:14:08.841Z,2.83
2022-10-23T09:17:07.851Z,6.15
2022-10-23T09:19:34.785Z,1.50
2022-10-23T09:22:01.713Z,1.50
2022-10-23T09:24:31.792Z,1.60
2022-10-23T09:27:00.632Z,1.60
2022-10-23T09:29:32.854Z,1.73
2022-10-23T09:32:01.949Z,1.45
2022-10-23T09:34:30.886Z,1.58
2022-10-23T09:37:21.413Z,1.42
2022-10-23T09:39:48.912Z,1.50
2022-10-23T09:42:26.233Z,1.67
2022-10-23T09:44:54.768Z,1.55
2022-10-23T09:47:24.897Z,1.60
2022-10-23T09:49:54.241Z,1.60
2022-10-23T09:52:39.469Z,1.73
2022-10-23T09:55:35.399Z,2.95
2022-10-23T09:58:02.029Z,1.65
2022-10-23T10:00:28.810Z,1.80
2022-10-23T10:02:55.429Z,1.92
2022-10-23T10:05:42.526Z,1.40
2022-10-23T10:08:09.143Z,1.60
2022-10-23T10:10:45.640Z,2.00
2022-10-23T10:13:32.446Z,3.95
2022-10-23T10:16:05.386Z,2.90
2022-10-23T10:18:50.827Z,1.70
2022-10-23T10:21:48.281Z,2.03
2022-10-23T10:24:25.393Z,1.67
2022-10-23T10:27:19.860Z,1.85
2022-10-23T10:30:10.493Z,2.00
2022-10-23T10:33:10.892Z,2.08
2022-10-23T10:35:50.728Z,3.63
2022-10-23T10:38:38.290Z,1.63
2022-10-23T10:41:26.196Z,2.08
2022-10-23T10:44:10.915Z,1.85
2022-10-23T10:46:58.828Z,1.80
2022-10-23T10:49:34.470Z,2.10
2022-10-23T10:52:22.812Z,2.10
2022-10-23T10:55:19.472Z,1.70
2022-10-23T10:57:54.944Z,1.90
2022-10-23T11:00:24.202Z,2.30
2022-10-23T11:02:57.734Z,1.33
2022-10-23T11:05:35.306Z,1.40
2022-10-23T11:08:05.886Z,1.30
2022-10-23T11:10:33.662Z,2.08
2022-10-23T11:13:00.607Z,1.70
2022-10-23T11:15:42.870Z,2.50
2022-10-23T11:18:26.545Z,1.90
2022-10-23T11:21:12.026Z,1.50
2022-10-23T11:27:39.432Z,1.60
2022-10-23T11:30:33.211Z,1.40
2022-10-23T11:33:24.727Z,1.80
2022-10-23T11:36:01.837Z,1.48
2022-10-23T11:38:32.155Z,1.50
2022-10-23T11:41:03.869Z,1.50
2022-10-23T11:43:46.368Z,1.50
2022-10-23T11:46:31.029Z,1.23
2022-10-23T11:48:58.359Z,1.67
2022-10-23T11:51:36.953Z,1.42
2022-10-23T11:54:16.182Z,1.60
2022-10-23T11:57:13.895Z,1.80
2022-10-23T11:59:49.856Z,1.55
2022-10-23T12:02:19.355Z,1.55
2022-10-23T12:04:49.327Z,1.70
2022-10-23T12:07:30.072Z,1.60
2022-10-23T12:10:17.591Z,1.70
2022-10-23T12:12:59.835Z,2.08
2022-10-23T12:15:27.742Z,1.67
2022-10-23T12:18:06.975Z,1.67
2022-10-23T12:20:55.163Z,1.50
2022-10-23T12:23:48.223Z,1.20
2022-10-23T12:26:42.538Z,1.50
2022-10-23T12:29:30.656Z,1.60
2022-10-23T12:32:38.823Z,1.90
2022-10-23T12:35:28.816Z,1.48
2022-10-23T12:38:17.938Z,1.33
2022-10-23T12:40:46.350Z,2.00
2022-10-23T12:43:29.481Z,1.67
2022-10-23T12:46:00.144Z,1.67
2022-10-23T12:48:27.040Z,1.50
2022-10-23T12:50:56.328Z,1.65
2022-10-23T12:53:24.302Z,1.70
2022-10-23T12:56:03.267Z,1.60
2022-10-23T12:58:32.976Z,1.90
2022-10-23T13:01:04.315Z,1.75
2022-10-23T13:03:33.270Z,1.63
2022-10-23T13:06:04.618Z,1.40
2022-10-23T13:08:42.278Z,1.58
2022-10-23T13:11:15.587Z,1.63
2022-10-23T13:13:42.493Z,1.27
2022-10-23T13:16:23.752Z,1.27
2022-10-23T13:18:51.007Z,1.77
2022-10-23T13:21:25.138Z,1.58
2022-10-23T13:23:53.987Z,1.60
2022-10-23T13:26:30.490Z,1.40
2022-10-23T13:28:57.754Z,1.83
2022-10-23T13:31:26.229Z,5.50
2022-10-23T13:33:59.160Z,1.98
2022-10-23T13:36:27.992Z,1.58
2022-10-23T13:39:10.030Z,1.50
2022-10-23T13:41:46.894Z,1.58
2022-10-23T13:44:16.991Z,2.80
2022-10-23T13:46:44.446Z,2.65
2022-10-23T13:49:11.134Z,2.38
2022-10-23T13:51:44.989Z,2.05
2022-10-23T13:56:54.446Z,1.50
2022-10-23T13:59:21.857Z,1.88
2022-10-23T14:01:50.307Z,2.03
2022-10-23T14:04:18.599Z,2.00
2022-10-23T14:06:45.338Z,2.53
2022-10-23T14:09:14.660Z,2.42
2022-10-23T14:11:41.911Z,2.17
2022-10-23T14:14:09.094Z,2.45
2022-10-23T14:16:35.849Z,2.53
2022-10-23T14:19:02.683Z,1.98
2022-10-23T14:21:29.330Z,2.40
2022-10-23T14:23:56.109Z,3.10
2022-10-23T14:26:25.214Z,2.78
2022-10-23T14:28:53.891Z,2.83
2022-10-23T14:31:20.950Z,2.10
2022-10-23T14:33:52.340Z,2.25
2022-10-23T14:38:55.760Z,3.40
2022-10-23T14:41:22.928Z,3.92
2022-10-23T14:43:49.582Z,2.80
2022-10-23T14:46:19.024Z,4.65
2022-10-23T14:48:47.181Z,2.92
2022-10-23T14:51:18.176Z,3.40
2022-10-23T14:53:45.173Z,3.67
2022-10-23T14:56:11.846Z,3.10
2022-10-23T14:58:38.518Z,3.45
2022-10-23T15:01:05.597Z,4.35
2022-10-23T15:03:32.298Z,4.88
2022-10-23T15:05:59.129Z,4.55
2022-10-23T15:08:26.035Z,5.68
2022-10-23T15:11:07.751Z,7.95
2022-10-23T15:13:37.117Z,8.48
2022-10-23T15:16:09.519Z,11.80
2022-10-23T15:21:09.919Z,9.10
2022-10-23T15:23:39.519Z,7.82
2022-10-23T15:26:09.791Z,13.50
2022-10-23T15:28:36.454Z,8.80
2022-10-23T15:31:03.755Z,9.38
2022-10-23T15:33:30.552Z,9.25
2022-10-23T15:35:57.279Z,10.65
2022-10-23T15:38:24.666Z,12.75
2022-10-23T15:40:58.591Z,12.10
2022-10-23T15:43:25.330Z,10.15
2022-10-23T15:45:51.959Z,11.18
2022-10-23T15:48:19.416Z,10.18
2022-10-23T15:50:46.054Z,10.38
2022-10-23T15:53:12.923Z,10.88
2022-10-23T15:55:39.593Z,29.48
2022-10-23T15:58:06.428Z,25.10
2022-10-23T16:00:36.109Z,66.85
2022-10-23T16:03:02.894Z,41.95
2022-10-23T16:05:29.608Z,65.90
2022-10-23T16:07:56.331Z,39.85
2022-10-23T16:10:23.559Z,45.83
2022-10-23T16:12:50.291Z,26.83
2022-10-23T16:15:17.159Z,28.92
2022-10-23T16:17:44.003Z,37.22
2022-10-23T16:20:11.530Z,46.10
2022-10-23T16:22:41.339Z,51.08
2022-10-23T16:25:10.812Z,60.03
2022-10-23T16:27:37.564Z,36.97
2022-10-23T16:30:06.394Z,51.22
2022-10-23T16:32:33.234Z,124.38
2022-10-23T16:34:59.892Z,168.70
2022-10-23T16:37:26.596Z,80.07
2022-10-23T16:39:53.249Z,64.78
2022-10-23T16:42:19.891Z,98.38
2022-10-23T16:44:46.744Z,115.68
2022-10-23T16:47:13.427Z,122.82
2022-10-23T16:49:40.129Z,91.40
2022-10-23T16:52:06.795Z,85.40
2022-10-23T16:54:33.602Z,37.83
2022-10-23T16:57:00.274Z,12.85
2022-10-23T16:59:26.963Z,14.70
2022-10-23T17:01:54.231Z,23.02
2022-10-23T17:04:21.032Z,114.68
2022-10-23T17:06:47.911Z,70.18
2022-10-23T17:09:14.791Z,37.38
2022-10-23T17:11:44.197Z,26.05
2022-10-23T17:14:17.599Z,24.65
2022-10-23T17:16:50.302Z,33.28
2022-10-23T17:19:47.237Z,22.60
2022-10-23T17:22:10.694Z,23.48
2022-10-23T17:24:39.313Z,26.83
2022-10-23T17:27:06.594Z,29.15
2022-10-23T17:29:33.315Z,38.65
2022-10-23T17:32:00.045Z,52.08
2022-10-23T17:34:26.865Z,62.03
2022-10-23T17:36:55.127Z,59.25
2022-10-23T17:39:25.272Z,61.22
2022-10-23T17:41:52.771Z,83.90
2022-10-23T17:44:19.555Z,60.47
2022-10-23T17:46:46.624Z,52.33
2022-10-23T17:49:13.441Z,73.32
2022-10-23T17:51:40.227Z,36.75
2022-10-23T17:54:10.723Z,37.42
2022-10-23T17:56:38.426Z,36.85
2022-10-23T17:59:11.719Z,43.22
2022-10-23T18:01:38.997Z,38.63
2022-10-23T18:04:07.532Z,46.78
2022-10-23T18:06:40.344Z,50.45
2022-10-23T18:09:07.643Z,57.85
2022-10-23T18:11:37.087Z,36.63
2022-10-23T18:14:05.535Z,26.48
2022-10-23T18:16:34.084Z,15.25
2022-10-23T18:19:01.631Z,26.77
2022-10-23T18:21:29.516Z,16.35
2022-10-23T18:23:58.225Z,12.13
2022-10-23T18:26:27.400Z,15.82
2022-10-23T18:28:57.408Z,24.48
2022-10-23T18:31:27.097Z,16.23
2022-10-23T18:33:59.706Z,11.55
2022-10-23T18:36:28.698Z,18.02
2022-10-23T18:41:23.745Z,17.05
2022-10-23T18:43:54.664Z,15.50
2022-10-23T18:46:22.431Z,17.23
2022-10-23T18:48:50.918Z,15.55
2022-10-23T18:51:26.489Z,22.58
2022-10-23T18:53:53.970Z,13.45
2022-10-23T18:56:23.591Z,6.60
2022-10-23T18:58:54.088Z,5.72
2022-10-23T19:01:22.623Z,6.82
2022-10-23T19:03:50.609Z,7.07
2022-10-23T19:06:17.871Z,8.00
2022-10-23T19:08:45.676Z,12.40
2022-10-23T19:11:14.600Z,18.38
2022-10-23T19:13:42.038Z,35.25
2022-10-23T19:16:29.134Z,14.43
2022-10-23T19:19:00.546Z,8.40
2022-10-23T19:21:31.719Z,9.25
2022-10-23T19:24:05.072Z,10.27
2022-10-23T19:26:34.366Z,8.80
2022-10-23T19:29:01.749Z,12.23
2022-10-23T19:31:28.664Z,25.50
2022-10-23T19:33:56.021Z,29.38
2022-10-23T19:36:23.695Z,27.35
2022-10-23T19:38:50.993Z,19.77
2022-10-23T19:41:18.899Z,14.32
2022-10-23T19:43:45.744Z,15.10
2022-10-23T19:46:12.616Z,14.20
2022-10-23T19:48:44.569Z,9.38
2022-10-23T19:51:13.027Z,6.88
2022-10-23T19:53:41.389Z,10.48
2022-10-23T19:56:10.889Z,13.73
2022-10-23T19:58:38.680Z,7.80
2022-10-23T20:01:14.368Z,9.73
2022-10-23T20:03:42.336Z,10.63
2022-10-23T20:06:11.273Z,10.52
2022-10-23T20:08:38.329Z,13.20
2022-10-23T20:11:05.414Z,13.70
2022-10-23T20:13:32.228Z,13.23
2022-10-23T20:15:59.175Z,9.30
2022-10-23T20:18:26.153Z,7.90
2022-10-23T20:20:53.735Z,7.57
2022-10-23T20:23:20.529Z,9.25
2022-10-23T20:25:47.276Z,9.30
2022-10-23T20:28:15.219Z,6.63
2022-10-23T20:30:42.696Z,7.50
2022-10-23T20:33:09.484Z,8.88
2022-10-23T20:35:43.246Z,7.55
2022-10-23T20:38:10.075Z,9.40
2022-10-23T20:40:36.791Z,11.43
2022-10-23T20:43:03.875Z,11.00
2022-10-23T20:45:30.581Z,10.63
2022-10-23T20:47:57.524Z,15.95
2022-10-23T20:50:24.227Z,27.98
2022-10-23T20:52:51.421Z,18.80
2022-10-23T20:55:19.101Z,8.25
2022-10-23T20:57:46.576Z,9.23
2022-10-23T21:00:13.777Z,8.77
2022-10-23T21:02:40.496Z,10.35
2022-10-23T21:05:07.862Z,8.80
2022-10-23T21:07:34.611Z,5.82
2022-10-23T21:10:03.588Z,5.65
2022-10-23T21:12:30.331Z,11.82
2022-10-23T21:14:56.957Z,6.50
2022-10-23T21:17:23.674Z,5.90
2022-10-23T21:19:50.321Z,6.32
2022-10-23T21:22:17.191Z,6.28
2022-10-23T21:24:43.810Z,6.50
2022-10-23T21:27:10.532Z,7.65
2022-10-23T21:29:37.147Z,8.43
2022-10-23T21:32:04.025Z,9.93
2022-10-23T21:34:30.905Z,10.20
2022-10-23T21:37:12.288Z,7.20
2022-10-23T21:39:39.659Z,7.78
2022-10-23T21:42:06.675Z,8.50
2022-10-23T21:44:33.484Z,8.50
2022-10-23T21:47:00.114Z,6.78
2022-10-23T21:49:26.956Z,6.72
2022-10-23T21:51:55.074Z,6.40
2022-10-23T21:54:22.014Z,6.95
2022-10-23T21:56:50.889Z,6.68
2022-10-23T21:59:20.803Z,6.88
2022-10-23T22:01:48.848Z,6.90
2022-10-23T22:04:20.851Z,7.03
2022-10-23T22:06:49.605Z,8.48
2022-10-23T22:09:19.926Z,11.35
2022-10-23T22:11:48.247Z,11.63
2022-10-23T22:14:14.997Z,10.07
2022-10-23T22:16:42.226Z,11.75
2022-10-23T22:19:11.770Z,11.13
2022-10-23T22:21:40.091Z,6.90
2022-10-23T22:24:07.194Z,10.65
2022-10-23T22:26:39.791Z,9.98
2022-10-23T22:29:09.656Z,8.48
2022-10-23T22:31:38.117Z,7.95
2022-10-23T22:34:18.691Z,8.57
2022-10-23T22:36:55.190Z,8.02
2022-10-23T22:39:22.915Z,9.23
2022-10-23T22:41:50.485Z,5.18
2022-10-23T22:44:17.302Z,5.72
2022-10-23T22:46:44.630Z,5.07
2022-10-23T22:49:11.535Z,5.53
2022-10-23T22:51:39.262Z,5.93
2022-10-23T22:54:06.272Z,5.93
2022-10-23T22:56:33.254Z,8.13
2022-10-23T22:58:59.926Z,7.38
2022-10-23T23:01:36.464Z,7.88
2022-10-23T23:04:13.888Z,5.80
2022-10-23T23:06:51.078Z,8.52
2022-10-23T23:09:18.791Z,6.95
2022-10-23T23:11:51.506Z,6.20
2022-10-23T23:14:22.957Z,5.75
2022-10-23T23:16:51.550Z,4.70
2022-10-23T23:19:18.246Z,5.80
2022-10-23T23:21:44.922Z,6.13
2022-10-23T23:24:12.287Z,6.75
2022-10-23T23:26:39.234Z,5.65
2022-10-23T23:29:05.955Z,6.10
2022-10-23T23:31:32.676Z,8.93
2022-10-23T23:33:59.561Z,5.47
2022-10-23T23:36:27.612Z,5.50
2022-10-23T23:38:56.830Z,6.75
2022-10-23T23:41:24.470Z,6.75
2022-10-23T23:43:54.169Z,6.35
2022-10-23T23:46:21.061Z,3.92
2022-10-23T23:48:49.469Z,3.90
2022-10-23T23:51:21.793Z,4.32
2022-10-23T23:53:51.414Z,4.45
2022-10-23T23:56:18.859Z,5.03
2022-10-23T23:58:45.563Z,4.93
